Terminal Aerodrome Forecast
Issued by NWS Cleveland, OH

Home | Current Version | Previous Version | Text Only | Print | Product List | Glossary On
Versions: 1 2 3 4 5 6 7 8 9 10 11 12 13 14 15 16 17 18 19
323
FTUS41 KCLE 150535
TAFMFD
TAF
KMFD 150535Z 1506/1606 VRB03KT P6SM BKN200
     FM150900 VRB04KT P6SM OVC040
     FM151800 23012G20KT P6SM OVC012
     FM152300 26013KT P6SM SCT015 OVC035=

USA.gov is the U.S. government's official web portal to all federal, state and local government web resources and services.